Yokohama, Japan
Current Conditions -  °F | °C
As of 4:00 AM on Monday 22 Dec 2014 (Local Time) from RJTT Reporting Station
Scattered Clouds Scattered Clouds  
Wind Chill: 36°   Ceiling: Unl
Heat Index: 43°   Visibility: 6mi
Dew Point: 32°   Wind: 14mph
Humidity: 66%   Direction: 280°W
Pressure: 29.77"   Gusts: NA
Location:  35.47°N, 139.62°E
Report Text: RJTT 211900Z 28012KT 9999 SCT025 06/00 Q1008 NOSIG
Loading
Personal Weather Stations






























Interactive Weather Map New forecast layout! Learn more

10-Day Weather Forecast

Advertisements
Track Severe Weather on mobile